Aviation Digital Data Service (ADDS)

Output produced by METARs form (0234 UTC 25 January 2020)
found at http://www.aviationweather.gov/metar/data/
 
Forecast for: LCLK (LARNACA/LARNAX A, CY)
Text: TAF LCLK 242330Z 2500/2524 33006KT 9999 FEW030
Forecast period: 0000 to 1000 UTC 25 January 2020
Forecast type: FROM: standard forecast or significant change
Winds: from the NNW (330 degrees) at 7 MPH (6 knots; 3.1 m/s)
Visibility: 6 or more miles 10+ km)
Ceiling: at least 12,000 feet AGL
Clouds: few clouds at 3000 feet AGL
Weather: no significant weather forecast for this period
Text: BECMG 2510/2513 21010KT
Forecast period: 1000 to 1500 UTC 25 January 2020
Forecast type: BECOMING: Conditions expected to become as follows by 1300 UTC 25 January 2020
Winds: from the SSW (210 degrees) at 12 MPH (10 knots; 5.1 m/s)
Visibility: 6 or more miles 10+ km)
Ceiling: at least 12,000 feet AGL
Clouds: few clouds at 3000 feet AGL
Weather: no significant weather forecast for this period
Text: BECMG 2515/2517 28007KT
Forecast period: 1500 UTC 25 January 2020 to 0000 UTC 26 January 2020
Forecast type: BECOMING: Conditions expected to become as follows by 1700 UTC 25 January 2020
Winds: from the W (280 degrees) at 8 MPH (7 knots; 3.6 m/s)
Visibility: 6 or more miles 10+ km)
Ceiling: at least 12,000 feet AGL
Clouds: few clouds at 3000 feet AGL
Weather: no significant weather forecast for this period